CheckWX is a tool to help pilots better visualize weather data.  It is not intended as a substitute for an official pre-flight weather briefing.

03:36:02 UTC

KMUO METAR
Mountain Home AFB Airport
Mountain Home, Idaho, USA
Current

38 mins ago

KMUO 270258Z 00000KT 10SM OVC090 16/11 A2976 RMK AO2A LTG DSNT SW SLP068 T01610106 52015
Observed
May-27 @ 02:58 UTC
Visibility
10 SM
Flight Rules
VFR
Cloud Levels
  • Overcast at 9,000' AGL
Temperature
16°C / 61°F
Dewpoint
11°C / 52°F
Humidity
72%
Altimeter
29.76" Hg
Pressure
1007.82 hPa
Previous

2 hours ago

KMUO 270158Z 02006KT 10SM SCT150 BKN180 17/09 A2974 RMK AO2A SLP061 T01700092
Observed
May-27 @ 01:58 UTC
Wind
  • 020° at 6 KTS
Visibility
10 SM
Flight Rules
VFR
Cloud Levels
  • Scattered at 15,000' AGL
  • Broken at 18,000' AGL
Temperature
17°C / 63°F
Dewpoint
C / 48°F
Humidity
59%
Altimeter
29.74" Hg
Pressure
1007.12 hPa
Previous

3 hours ago

KMUO 270058Z 34006KT 10SM SCT180 BKN220 17/10 A2972 RMK AO2A SLP054 T01700099
Observed
May-27 @ 00:58 UTC
Wind
  • 340° at 6 KTS
Visibility
10 SM
Flight Rules
VFR
Cloud Levels
  • Scattered at 18,000' AGL
  • Broken at 22,000' AGL
Temperature
17°C / 63°F
Dewpoint
10°C / 50°F
Humidity
64%
Altimeter
29.72" Hg
Pressure
1006.42 hPa